Time;durP1;ratioP1;P1;durP2;ratioP2;P2;SDS_P1;SDS_P2;PMS_P1;PMS_P2;Temp;Humidity;BMP_temperature;BMP_pressure;BME280_temperature;BME280_humidity;BME280_pressure;Samples;Min_cycle;Max_cycle;Signal;HPM_P1;HPM_P2
2021/05/25 00:00:55;;;;;;;13.17;5.03;;;12.10;99.90;;;;;;4447086;28;657490;-66
2021/05/25 00:03:43;;;;;;;8.67;4.87;;;12.00;99.90;;;;;;4414760;28;657631;-66
2021/05/25 00:06:30;;;;;;;11.77;4.73;;;12.00;99.90;;;;;;4447274;28;657224;-65
2021/05/25 00:09:17;;;;;;;11.90;4.90;;;12.00;99.90;;;;;;4424823;28;658270;-67
2021/05/25 00:12:05;;;;;;;9.93;4.97;;;12.00;99.90;;;;;;4451111;28;658089;-65
2021/05/25 00:14:52;;;;;;;11.57;4.43;;;11.90;99.90;;;;;;4442570;28;656880;-66
2021/05/25 00:17:39;;;;;;;9.57;4.57;;;11.90;99.90;;;;;;4443480;28;657494;-65
2021/05/25 00:20:27;;;;;;;9.88;4.20;;;11.80;99.90;;;;;;4452727;28;656432;-65
2021/05/25 00:23:14;;;;;;;8.77;4.93;;;11.70;99.90;;;;;;4425373;28;657738;-65
2021/05/25 00:26:01;;;;;;;10.77;4.87;;;11.80;99.90;;;;;;4438318;28;656681;-65
2021/05/25 00:28:48;;;;;;;8.73;4.57;;;11.70;99.90;;;;;;4425403;28;657685;-66
2021/05/25 00:31:35;;;;;;;10.90;4.70;;;11.70;99.90;;;;;;4455432;28;657161;-65
2021/05/25 00:34:22;;;;;;;11.15;4.75;;;11.80;99.90;;;;;;4430095;28;657590;-66
2021/05/25 00:37:10;;;;;;;9.30;4.70;;;11.80;99.90;;;;;;4455989;28;658546;-65
2021/05/25 00:39:57;;;;;;;12.27;4.60;;;11.80;99.90;;;;;;4433835;28;656458;-66
2021/05/25 00:42:45;;;;;;;10.77;4.77;;;11.90;99.90;;;;;;4448279;28;658371;-66
2021/05/25 00:45:32;;;;;;;9.33;4.50;;;11.90;99.90;;;;;;4445570;28;657807;-66
2021/05/25 00:48:19;;;;;;;12.07;4.47;;;12.00;99.90;;;;;;4456822;28;657578;-65
2021/05/25 00:51:06;;;;;;;8.33;4.37;;;12.00;99.90;;;;;;4442888;28;657997;-65
2021/05/25 00:53:54;;;;;;;15.87;4.90;;;12.00;99.90;;;;;;4419796;28;656282;-65
2021/05/25 00:56:41;;;;;;;12.20;4.40;;;12.00;99.90;;;;;;4437941;28;657527;-65
2021/05/25 00:59:28;;;;;;;7.87;4.27;;;12.00;99.90;;;;;;4427454;28;657865;-65
2021/05/25 01:02:15;;;;;;;7.60;4.20;;;12.00;99.90;;;;;;4434415;28;657746;-65
2021/05/25 01:05:03;;;;;;;11.90;4.30;;;12.00;99.90;;;;;;4409284;28;656958;-66
2021/05/25 01:07:50;;;;;;;8.37;4.23;;;12.00;99.90;;;;;;4433463;28;658509;-65
2021/05/25 01:10:40;;;;;;;8.13;4.27;;;12.10;99.90;;;;;;4431121;28;656921;-66
2021/05/25 01:13:28;;;;;;;8.10;3.83;;;12.10;99.90;;;;;;4421659;28;656598;-66
2021/05/25 01:16:16;;;;;;;7.60;3.90;;;12.10;99.90;;;;;;4436923;28;658006;-65
2021/05/25 01:19:03;;;;;;;6.73;3.70;;;12.10;99.90;;;;;;4433892;28;656346;-66
2021/05/25 01:21:51;;;;;;;6.23;3.40;;;12.00;99.90;;;;;;4455806;28;657184;-66
2021/05/25 01:24:38;;;;;;;5.15;3.50;;;12.00;99.90;;;;;;4433484;28;656827;-66
2021/05/25 01:27:25;;;;;;;7.53;3.63;;;12.00;99.90;;;;;;4435159;28;657678;-65
2021/05/25 01:30:13;;;;;;;10.90;3.70;;;12.00;99.90;;;;;;4433299;28;656911;-66
2021/05/25 01:33:00;;;;;;;7.37;4.07;;;12.00;99.90;;;;;;4451026;28;658195;-65
2021/05/25 01:35:47;;;;;;;6.77;3.70;;;12.00;99.90;;;;;;4433207;28;656351;-65
2021/05/25 01:38:35;;;;;;;8.17;3.70;;;12.00;99.90;;;;;;4449581;28;656464;-65
2021/05/25 01:41:22;;;;;;;9.20;3.23;;;12.00;99.90;;;;;;4423495;28;656404;-67
2021/05/25 01:44:09;;;;;;;7.20;3.70;;;12.00;99.90;;;;;;4455288;28;657333;-66
2021/05/25 01:46:58;;;;;;;8.77;3.47;;;12.10;99.90;;;;;;4451691;28;656881;-65
2021/05/25 01:49:45;;;;;;;6.70;3.27;;;12.10;99.90;;;;;;4428548;28;656788;-65
2021/05/25 01:52:32;;;;;;;9.70;3.73;;;12.10;99.90;;;;;;4444475;28;656844;-66
2021/05/25 01:55:25;;;;;;;10.57;3.83;;;12.20;99.90;;;;;;4448050;28;656965;-66
2021/05/25 01:58:13;;;;;;;9.23;3.17;;;12.20;99.90;;;;;;4406401;28;657800;-66
2021/05/25 02:01:01;;;;;;;6.45;3.45;;;12.20;99.90;;;;;;4450683;28;657925;-65
2021/05/25 02:03:48;;;;;;;8.80;3.63;;;12.20;99.90;;;;;;4427571;28;656561;-66
2021/05/25 02:06:35;;;;;;;9.73;3.97;;;12.20;99.90;;;;;;4437149;28;657566;-65
2021/05/25 02:09:22;;;;;;;8.73;3.65;;;12.20;99.90;;;;;;4412403;28;656599;-67
2021/05/25 02:12:15;;;;;;;10.47;3.90;;;12.20;99.90;;;;;;4450358;28;656772;-65
2021/05/25 02:15:02;;;;;;;7.53;3.50;;;12.20;99.90;;;;;;4438389;28;657852;-67
2021/05/25 02:17:49;;;;;;;8.23;3.40;;;12.10;99.90;;;;;;4439280;28;657305;-66
2021/05/25 02:20:37;;;;;;;10.13;4.13;;;12.10;99.90;;;;;;4431858;28;657053;-65
2021/05/25 02:23:24;;;;;;;6.80;3.83;;;12.00;99.90;;;;;;4412808;28;658780;-65
2021/05/25 02:26:11;;;;;;;8.03;3.70;;;12.00;99.90;;;;;;4437436;28;657211;-65
2021/05/25 02:28:59;;;;;;;8.23;4.20;;;12.00;99.90;;;;;;4431829;28;656560;-65
2021/05/25 02:31:46;;;;;;;11.10;4.07;;;12.00;99.90;;;;;;4439219;28;656701;-65
2021/05/25 02:34:33;;;;;;;8.77;3.50;;;12.00;99.90;;;;;;4408903;28;657612;-65
2021/05/25 02:37:20;;;;;;;4.97;3.60;;;12.00;99.90;;;;;;4440224;28;657470;-64
2021/05/25 02:40:08;;;;;;;13.03;4.40;;;12.00;99.90;;;;;;4416022;28;656547;-66
2021/05/25 02:42:55;;;;;;;12.17;4.07;;;11.90;99.90;;;;;;4450279;28;658985;-65
2021/05/25 02:45:43;;;;;;;8.32;4.00;;;11.90;99.90;;;;;;4422195;28;657413;-66
2021/05/25 02:48:30;;;;;;;10.60;3.57;;;11.90;99.90;;;;;;4449482;28;657292;-65
2021/05/25 02:51:17;;;;;;;10.03;4.20;;;11.90;99.90;;;;;;4431204;28;657502;-66
2021/05/25 02:54:05;;;;;;;9.27;3.37;;;11.90;99.90;;;;;;4427417;28;659373;-65
2021/05/25 02:56:52;;;;;;;7.97;3.90;;;11.80;99.90;;;;;;4419723;28;657260;-66
2021/05/25 02:59:39;;;;;;;10.30;3.80;;;11.80;99.90;;;;;;4453910;28;656152;-65
2021/05/25 03:02:27;;;;;;;6.83;3.40;;;11.80;99.90;;;;;;4452410;28;658409;-64
2021/05/25 03:05:14;;;;;;;6.53;4.03;;;11.80;99.90;;;;;;4431324;28;657979;-65
2021/05/25 03:08:02;;;;;;;9.57;4.07;;;11.70;99.90;;;;;;4453957;28;657441;-65
2021/05/25 03:10:49;;;;;;;9.43;4.67;;;11.70;99.90;;;;;;4428320;28;657193;-65
2021/05/25 03:13:36;;;;;;;8.47;4.23;;;11.70;99.90;;;;;;4435034;28;657145;-65
2021/05/25 03:16:23;;;;;;;8.47;4.37;;;11.70;99.90;;;;;;4414473;28;656719;-65
2021/05/25 03:19:11;;;;;;;6.87;4.37;;;11.60;99.90;;;;;;4419074;28;657792;-64
2021/05/25 03:21:58;;;;;;;9.40;4.20;;;11.60;99.90;;;;;;4408266;28;656363;-65
2021/05/25 03:24:45;;;;;;;11.30;4.47;;;11.50;99.90;;;;;;4455656;28;656481;-64
2021/05/25 03:27:32;;;;;;;8.87;4.17;;;11.50;99.90;;;;;;4433526;28;657601;-65
2021/05/25 03:30:21;;;;;;;11.00;4.30;;;11.50;99.90;;;;;;4458257;28;656534;-64
2021/05/25 03:33:08;;;;;;;8.20;3.87;;;11.40;99.90;;;;;;4433267;28;657550;-65
2021/05/25 03:35:56;;;;;;;6.30;4.10;;;11.40;99.90;;;;;;4458387;28;657282;-64
2021/05/25 03:38:43;;;;;;;8.00;4.03;;;11.40;99.90;;;;;;4435017;28;656922;-65
2021/05/25 03:41:31;;;;;;;7.63;3.83;;;11.50;99.90;;;;;;4456643;28;656594;-65
2021/05/25 03:44:18;;;;;;;8.97;4.27;;;11.50;99.90;;;;;;4435344;28;656615;-65
2021/05/25 03:47:05;;;;;;;6.23;3.33;;;11.50;99.90;;;;;;4455318;28;657100;-64
2021/05/25 03:49:52;;;;;;;9.00;4.10;;;11.50;99.90;;;;;;4440262;28;656473;-66
2021/05/25 03:52:41;;;;;;;9.30;4.28;;;11.60;99.90;;;;;;4449096;28;657389;-65
2021/05/25 03:55:37;;;;;;;6.33;3.90;;;11.60;99.90;;;;;;4427315;28;656432;-65
2021/05/25 04:01:30;;;;;;;10.33;4.47;;;11.50;99.90;;;;;;4407380;28;657272;-65
2021/05/25 04:04:17;;;;;;;8.40;4.30;;;11.60;99.90;;;;;;4438657;28;657638;-66
2021/05/25 04:07:04;;;;;;;10.77;3.70;;;11.60;99.90;;;;;;4444898;28;656276;-65
2021/05/25 04:09:52;;;;;;;10.60;4.37;;;11.70;99.90;;;;;;4451464;28;657813;-65
2021/05/25 04:12:39;;;;;;;6.57;3.60;;;11.70;99.90;;;;;;4424401;28;659369;-65
2021/05/25 04:15:26;;;;;;;7.27;3.60;;;11.70;99.90;;;;;;4452390;28;656495;-65
2021/05/25 04:18:13;;;;;;;6.50;3.17;;;11.80;99.90;;;;;;4415788;28;656558;-64
2021/05/25 04:21:00;;;;;;;6.07;3.47;;;11.80;99.90;;;;;;4428413;28;657896;-65
2021/05/25 04:23:47;;;;;;;7.47;3.70;;;11.80;99.90;;;;;;4420111;28;656289;-65
2021/05/25 04:26:35;;;;;;;26.80;10.77;;;11.80;99.90;;;;;;4443496;28;656744;-65
2021/05/25 04:29:23;;;;;;;36.67;10.43;;;11.90;99.90;;;;;;4410535;28;659033;-65
2021/05/25 04:32:10;;;;;;;14.40;5.80;;;11.90;99.90;;;;;;4437044;28;660699;-64
2021/05/25 04:34:56;;;;;;;9.80;4.67;;;12.00;99.90;;;;;;4445925;28;657244;-64
2021/05/25 04:37:44;;;;;;;7.97;3.50;;;12.00;99.90;;;;;;4414216;28;656854;-65
2021/05/25 04:40:32;;;;;;;6.60;3.53;;;12.00;99.90;;;;;;4428013;28;657148;-64
2021/05/25 04:43:20;;;;;;;7.03;3.50;;;12.00;99.90;;;;;;4416285;28;657880;-64
2021/05/25 04:46:07;;;;;;;6.07;3.20;;;12.00;99.90;;;;;;4434656;28;656751;-66
2021/05/25 04:48:54;;;;;;;7.68;3.42;;;12.00;99.90;;;;;;4451824;28;657183;-65
2021/05/25 04:51:41;;;;;;;10.10;3.43;;;12.00;99.90;;;;;;4452638;28;656470;-65
2021/05/25 04:54:29;;;;;;;8.53;3.43;;;12.00;99.90;;;;;;4428533;28;658105;-64
2021/05/25 04:57:16;;;;;;;6.83;3.33;;;12.10;99.90;;;;;;4452717;28;657050;-64
2021/05/25 05:00:04;;;;;;;7.63;3.13;;;12.00;99.90;;;;;;4433741;28;656628;-65
2021/05/25 05:02:51;;;;;;;5.07;3.20;;;12.00;99.90;;;;;;4449536;28;656771;-64
2021/05/25 05:05:38;;;;;;;6.23;3.33;;;12.00;99.90;;;;;;4417241;28;656796;-65
2021/05/25 05:08:25;;;;;;;5.30;2.77;;;12.10;99.90;;;;;;4450836;28;657989;-65
2021/05/25 05:11:12;;;;;;;8.60;3.00;;;12.10;99.90;;;;;;4433177;28;656583;-65
2021/05/25 05:13:59;;;;;;;4.60;2.88;;;12.10;99.90;;;;;;4433985;28;657157;-64
2021/05/25 05:16:47;;;;;;;4.23;3.07;;;12.20;99.90;;;;;;4441157;28;656952;-64
2021/05/25 05:19:34;;;;;;;5.17;3.00;;;12.20;99.90;;;;;;4432340;28;657448;-64
2021/05/25 05:22:21;;;;;;;9.90;3.50;;;12.20;99.90;;;;;;4442855;28;657465;-65
2021/05/25 05:25:09;;;;;;;5.73;3.07;;;12.20;99.90;;;;;;4413862;28;656656;-65
2021/05/25 05:27:56;;;;;;;6.03;3.43;;;12.20;99.90;;;;;;4425882;28;656263;-64
2021/05/25 05:30:43;;;;;;;7.57;3.77;;;12.20;99.90;;;;;;4386876;28;656282;-64
2021/05/25 05:33:31;;;;;;;6.67;3.33;;;12.20;99.90;;;;;;4412696;28;657928;-65
2021/05/25 05:36:19;;;;;;;6.33;4.03;;;12.20;99.90;;;;;;4411107;28;656418;-66
2021/05/25 05:39:06;;;;;;;6.63;4.33;;;12.30;99.90;;;;;;4418224;28;657187;-64
2021/05/25 05:41:53;;;;;;;8.52;3.72;;;12.40;99.90;;;;;;4410286;28;656896;-65
2021/05/25 05:44:40;;;;;;;6.33;3.23;;;12.30;99.90;;;;;;4442738;28;657612;-65
2021/05/25 05:47:27;;;;;;;6.43;3.47;;;12.30;99.90;;;;;;4401605;28;656657;-66
2021/05/25 05:50:15;;;;;;;5.77;3.60;;;12.40;99.90;;;;;;4424790;28;657817;-64
2021/05/25 05:53:03;;;;;;;26.03;14.60;;;12.40;99.90;;;;;;4408146;28;656555;-65
2021/05/25 05:55:50;;;;;;;29.33;17.27;;;12.50;99.90;;;;;;4409859;28;660997;-64
2021/05/25 05:58:37;;;;;;;21.30;10.70;;;12.50;99.90;;;;;;4427960;28;658841;-66
2021/05/25 06:01:25;;;;;;;16.27;8.00;;;12.50;99.90;;;;;;4423411;28;659592;-64
2021/05/25 06:04:12;;;;;;;13.20;7.97;;;12.50;99.90;;;;;;4429690;28;657251;-64
2021/05/25 06:07:00;;;;;;;9.53;5.63;;;12.60;99.90;;;;;;4394946;28;659355;-65
2021/05/25 06:09:47;;;;;;;14.93;6.80;;;12.60;99.90;;;;;;4437190;28;656270;-65
2021/05/25 06:12:34;;;;;;;13.33;6.40;;;12.50;99.90;;;;;;4395021;28;659228;-65
2021/05/25 06:15:21;;;;;;;12.77;5.90;;;12.50;99.90;;;;;;4427155;28;658603;-64
2021/05/25 06:18:08;;;;;;;11.23;5.50;;;12.50;99.90;;;;;;4406519;28;657443;-65
2021/05/25 06:20:56;;;;;;;15.13;6.30;;;12.70;99.90;;;;;;4412406;28;657446;-65
2021/05/25 06:23:44;;;;;;;10.77;5.37;;;12.60;99.90;;;;;;4401575;28;657725;-64
2021/05/25 06:26:31;;;;;;;14.50;5.60;;;12.80;99.90;;;;;;4423299;28;657706;-64
2021/05/25 06:29:19;;;;;;;11.93;5.20;;;12.90;99.90;;;;;;4400759;28;657692;-64
2021/05/25 06:32:06;;;;;;;11.67;4.40;;;12.90;99.90;;;;;;4420013;28;657996;-65
2021/05/25 06:34:54;;;;;;;12.83;7.03;;;12.90;99.90;;;;;;4378594;28;657430;-65
2021/05/25 06:37:42;;;;;;;10.40;6.30;;;13.10;99.90;;;;;;4426379;28;658434;-65
2021/05/25 06:40:31;;;;;;;5.17;2.70;;;13.10;99.90;;;;;;4414762;28;658537;-65
2021/05/25 06:43:18;;;;;;;10.60;2.80;;;13.20;99.90;;;;;;4417524;28;656662;-66
2021/05/25 06:46:06;;;;;;;11.43;3.90;;;13.20;99.90;;;;;;4426856;28;661015;-65
2021/05/25 06:48:53;;;;;;;5.07;3.20;;;13.30;99.90;;;;;;4392368;28;657517;-65
2021/05/25 06:51:40;;;;;;;4.30;2.20;;;13.40;99.90;;;;;;4422349;28;657984;-65
2021/05/25 06:54:29;;;;;;;5.37;2.43;;;13.40;99.90;;;;;;4417519;28;656425;-66
2021/05/25 06:57:16;;;;;;;4.20;2.10;;;13.40;99.90;;;;;;4431235;28;656556;-65
2021/05/25 07:00:05;;;;;;;4.10;2.53;;;13.40;99.90;;;;;;4409331;28;657347;-64
2021/05/25 07:02:52;;;;;;;3.60;2.10;;;13.50;99.90;;;;;;4395704;28;657279;-66
2021/05/25 07:05:39;;;;;;;7.23;2.57;;;13.60;99.90;;;;;;4425573;28;656443;-65
2021/05/25 07:08:30;;;;;;;4.97;2.23;;;13.60;99.90;;;;;;4415133;28;657437;-65
2021/05/25 07:11:17;;;;;;;6.33;2.70;;;13.70;99.90;;;;;;4385550;28;656441;-66
2021/05/25 07:14:05;;;;;;;7.23;3.00;;;13.80;99.90;;;;;;4434999;28;656575;-65
2021/05/25 07:16:52;;;;;;;9.77;3.47;;;14.00;99.90;;;;;;4416358;28;656451;-65
2021/05/25 07:19:39;;;;;;;7.87;3.33;;;14.30;99.90;;;;;;4433576;28;656303;-65
2021/05/25 07:22:26;;;;;;;6.70;3.40;;;14.50;99.90;;;;;;4429332;28;656403;-65
2021/05/25 07:25:14;;;;;;;6.97;2.83;;;14.70;99.90;;;;;;4432709;28;656645;-65
2021/05/25 07:28:01;;;;;;;4.20;2.70;;;14.90;99.90;;;;;;4435133;28;656570;-65
2021/05/25 07:30:49;;;;;;;7.97;2.80;;;14.90;99.90;;;;;;4425103;28;656911;-65
2021/05/25 07:33:36;;;;;;;4.10;2.40;;;14.90;99.90;;;;;;4444842;28;657009;-65
2021/05/25 07:36:23;;;;;;;5.70;2.90;;;14.90;99.90;;;;;;4405389;28;656528;-64
2021/05/25 07:39:10;;;;;;;5.47;2.70;;;14.90;99.90;;;;;;4442166;28;656993;-66
2021/05/25 07:41:57;;;;;;;4.43;2.40;;;14.80;99.90;;;;;;4418694;28;656716;-66
2021/05/25 07:44:44;;;;;;;3.70;2.30;;;14.70;99.90;;;;;;4435697;28;657033;-64
2021/05/25 07:47:32;;;;;;;6.17;2.80;;;14.60;99.90;;;;;;4439346;28;657014;-64
2021/05/25 07:50:19;;;;;;;12.60;4.60;;;14.40;99.90;;;;;;4424790;28;657554;-65
2021/05/25 07:53:06;;;;;;;14.83;6.90;;;14.20;99.90;;;;;;4433915;28;658279;-66
2021/05/25 07:55:53;;;;;;;19.77;7.55;;;14.00;99.90;;;;;;4385424;28;657533;-65
2021/05/25 07:58:40;;;;;;;17.95;8.23;;;13.80;99.90;;;;;;4440963;28;658931;-65
2021/05/25 08:01:27;;;;;;;12.85;6.95;;;13.80;99.90;;;;;;4406228;28;657539;-66
2021/05/25 08:04:15;;;;;;;8.93;5.00;;;13.70;99.90;;;;;;4444935;28;657299;-65
2021/05/25 08:07:02;;;;;;;11.33;5.80;;;13.70;99.90;;;;;;4418405;28;657479;-66
2021/05/25 08:09:49;;;;;;;16.83;7.93;;;13.70;99.90;;;;;;4436753;28;657116;-64
2021/05/25 08:12:36;;;;;;;8.57;4.10;;;13.70;99.90;;;;;;4433309;28;658160;-66
2021/05/25 08:15:25;;;;;;;9.77;4.00;;;13.80;99.90;;;;;;4413145;28;657373;-65
2021/05/25 08:18:19;;;;;;;4.97;2.57;;;13.90;99.90;;;;;;4418311;28;656468;-66
2021/05/25 08:21:07;;;;;;;6.10;3.50;;;14.00;99.90;;;;;;4419494;28;656616;-65
2021/05/25 08:23:54;;;;;;;10.07;4.47;;;14.20;99.90;;;;;;4416442;28;657588;-65
2021/05/25 08:26:41;;;;;;;8.73;4.10;;;14.30;99.90;;;;;;4437255;28;658100;-65
2021/05/25 08:29:28;;;;;;;6.93;3.97;;;14.40;99.90;;;;;;4416848;28;656845;-65
2021/05/25 08:32:15;;;;;;;6.13;4.40;;;14.20;99.90;;;;;;4439586;28;658044;-65
2021/05/25 08:35:03;;;;;;;7.53;4.80;;;14.10;99.90;;;;;;4420651;28;656473;-65
2021/05/25 08:37:55;;;;;;;10.37;4.70;;;14.30;99.90;;;;;;4442882;28;657390;-65
2021/05/25 08:40:42;;;;;;;9.30;5.15;;;14.00;99.90;;;;;;4394193;28;658128;-66
2021/05/25 08:43:29;;;;;;;10.93;5.03;;;14.10;99.90;;;;;;4424672;28;657038;-65
2021/05/25 08:46:16;;;;;;;8.13;4.90;;;14.10;99.90;;;;;;4440394;28;658206;-65
2021/05/25 08:49:06;;;;;;;8.13;4.57;;;14.00;99.90;;;;;;4405622;28;657150;-66
2021/05/25 08:51:53;;;;;;;9.37;5.00;;;14.00;99.90;;;;;;4422103;28;656441;-65
2021/05/25 08:54:42;;;;;;;11.00;5.70;;;14.10;99.90;;;;;;4418426;28;658348;-65
2021/05/25 08:57:29;;;;;;;14.37;5.37;;;14.10;99.90;;;;;;4412469;28;658203;-65
2021/05/25 09:00:17;;;;;;;10.30;5.53;;;14.30;99.90;;;;;;4429154;28;658027;-65
2021/05/25 09:03:05;;;;;;;8.23;5.10;;;14.30;99.90;;;;;;4413243;28;658917;-65
2021/05/25 09:05:53;;;;;;;7.53;5.03;;;14.50;99.90;;;;;;4413720;28;656496;-66
2021/05/25 09:08:41;;;;;;;7.13;4.83;;;14.70;99.90;;;;;;4427035;28;656914;-66
2021/05/25 09:11:29;;;;;;;8.63;4.03;;;14.90;99.90;;;;;;4417461;28;656621;-65
2021/05/25 09:14:16;;;;;;;6.53;4.00;;;15.20;99.90;;;;;;4434581;28;656474;-65
2021/05/25 09:17:15;;;;;;;4.73;3.60;;;15.30;99.90;;;;;;4422805;28;656580;-66
2021/05/25 09:20:03;;;;;;;6.30;4.40;;;15.20;99.90;;;;;;4389719;28;656969;-67
2021/05/25 09:22:50;;;;;;;6.67;4.43;;;15.10;99.90;;;;;;4424918;28;656903;-65
2021/05/25 09:25:38;;;;;;;5.03;4.00;;;15.10;99.90;;;;;;4395386;28;656816;-66
2021/05/25 09:28:26;;;;;;;6.17;4.40;;;15.20;99.90;;;;;;4432966;28;657197;-65
2021/05/25 09:31:13;;;;;;;6.20;3.70;;;15.10;99.90;;;;;;4396759;28;656943;-65
2021/05/25 09:34:10;;;;;;;6.07;4.33;;;15.20;99.90;;;;;;4421280;28;656320;-65
2021/05/25 09:36:58;;;;;;;9.97;3.40;;;15.50;99.90;;;;;;4375915;28;656355;-66
2021/05/25 09:39:52;;;;;;;5.30;3.50;;;15.90;99.90;;;;;;4413850;28;657232;-65
2021/05/25 09:42:39;;;;;;;5.20;3.05;;;16.30;99.90;;;;;;4369090;28;657150;-66
2021/05/25 09:45:27;;;;;;;8.60;3.80;;;16.20;99.90;;;;;;4415587;28;656432;-65
2021/05/25 09:48:14;;;;;;;4.43;2.87;;;16.00;99.90;;;;;;4393038;28;657301;-65
2021/05/25 09:51:01;;;;;;;3.17;2.87;;;16.20;99.90;;;;;;4412496;28;657341;-65
2021/05/25 09:53:48;;;;;;;9.00;3.07;;;16.40;99.90;;;;;;4386730;28;656816;-66
2021/05/25 09:56:36;;;;;;;6.00;3.43;;;16.30;99.90;;;;;;4393684;28;658515;-65
2021/05/25 09:59:31;;;;;;;3.07;2.77;;;16.20;99.90;;;;;;4409433;28;656917;-66
2021/05/25 10:02:20;;;;;;;5.50;3.30;;;16.10;99.90;;;;;;4363331;28;658315;-65
2021/05/25 10:05:08;;;;;;;6.47;3.40;;;16.20;99.90;;;;;;4394697;28;656759;-66
2021/05/25 10:07:55;;;;;;;4.63;3.37;;;16.20;99.90;;;;;;4409810;28;657357;-66
2021/05/25 10:10:42;;;;;;;6.30;3.33;;;16.30;99.90;;;;;;4399777;28;656505;-66
2021/05/25 10:13:31;;;;;;;4.77;3.50;;;16.40;99.90;;;;;;4415106;28;656478;-65
2021/05/25 10:16:20;;;;;;;6.70;3.27;;;16.30;99.90;;;;;;4390959;28;657127;-65
2021/05/25 10:19:26;;;;;;;5.10;3.50;;;16.20;99.90;;;;;;4425416;28;656432;-66
2021/05/25 10:22:13;;;;;;;5.50;3.57;;;16.30;99.90;;;;;;4398166;28;656835;-65
2021/05/25 10:25:00;;;;;;;4.10;3.10;;;16.40;99.90;;;;;;4445651;28;657832;-65
2021/05/25 10:27:47;;;;;;;6.57;3.03;;;16.50;99.90;;;;;;4429766;28;656758;-66
2021/05/25 10:30:39;;;;;;;5.83;3.70;;;16.40;99.90;;;;;;4449519;28;656183;-66
2021/05/25 10:33:30;;;;;;;3.37;2.80;;;16.20;99.90;;;;;;4426398;28;656906;-65
2021/05/25 10:36:18;;;;;;;3.93;3.10;;;16.00;99.90;;;;;;4409906;28;658941;-66
2021/05/25 10:39:05;;;;;;;6.60;3.40;;;15.80;99.90;;;;;;4449812;28;656775;-66
2021/05/25 10:41:52;;;;;;;3.70;3.17;;;16.00;99.90;;;;;;4429282;28;656412;-66
2021/05/25 10:44:46;;;;;;;6.83;3.70;;;16.00;99.90;;;;;;4440745;28;656773;-65
2021/05/25 10:47:35;;;;;;;5.50;2.87;;;16.20;99.90;;;;;;4410910;28;656599;-66
2021/05/25 10:50:25;;;;;;;5.77;3.37;;;16.10;99.90;;;;;;4452868;28;656862;-65
2021/05/25 10:53:26;;;;;;;4.80;3.70;;;15.90;99.90;;;;;;4405648;28;656916;-66
2021/05/25 10:56:24;;;;;;;6.00;3.60;;;15.70;99.90;;;;;;4431921;28;656527;-65
2021/05/25 10:59:14;;;;;;;4.80;3.60;;;15.70;99.90;;;;;;4428813;28;656655;-65
2021/05/25 11:02:01;;;;;;;5.00;3.90;;;15.60;99.90;;;;;;4425109;28;657332;-65
2021/05/25 11:04:48;;;;;;;6.07;3.57;;;15.30;99.90;;;;;;4428182;28;656585;-65
2021/05/25 11:07:38;;;;;;;5.27;4.37;;;15.20;99.90;;;;;;4439058;28;657246;-66
2021/05/25 11:10:38;;;;;;;11.43;3.50;;;15.00;99.90;;;;;;4428998;28;658655;-65
2021/05/25 11:13:26;;;;;;;4.93;2.88;;;14.70;99.90;;;;;;4399316;28;658876;-66
2021/05/25 11:16:15;;;;;;;4.20;1.57;;;14.10;99.90;;;;;;4432419;28;656931;-67
2021/05/25 11:19:33;;;;;;;3.50;1.40;;;13.50;99.90;;;;;;4427459;28;656494;-67
2021/05/25 11:22:35;;;;;;;2.83;1.27;;;12.70;99.90;;;;;;4429968;28;657149;-65
2021/05/25 11:25:39;;;;;;;1.13;0.90;;;12.10;99.90;;;;;;4411851;28;657385;-68
2021/05/25 11:28:26;;;;;;;2.10;1.03;;;11.70;99.90;;;;;;4425682;28;656486;-66
2021/05/25 11:31:22;;;;;;;8.97;1.00;;;11.30;99.90;;;;;;4429022;28;657186;-66
2021/05/25 11:34:09;;;;;;;2.97;1.20;;;11.00;99.90;;;;;;4397426;28;656899;-66
2021/05/25 11:37:01;;;;;;;3.13;1.27;;;10.80;99.90;;;;;;4444040;28;656201;-66
2021/05/25 11:39:48;;;;;;;2.33;0.97;;;10.70;99.90;;;;;;4428594;28;656618;-67
2021/05/25 11:42:36;;;;;;;8.53;1.20;;;10.70;99.90;;;;;;4455645;28;657371;-66
2021/05/25 11:45:24;;;;;;;7.80;1.20;;;10.70;99.90;;;;;;4433324;28;656922;-67
2021/05/25 11:48:11;;;;;;;1.83;1.13;;;10.80;99.90;;;;;;4445724;28;656751;-66
2021/05/25 11:51:09;;;;;;;3.57;1.20;;;10.80;99.90;;;;;;4428170;28;656373;-67
2021/05/25 11:54:06;;;;;;;2.00;1.20;;;10.90;99.90;;;;;;4421019;28;657118;-66
2021/05/25 11:56:53;;;;;;;1.47;1.13;;;11.10;99.90;;;;;;4404416;28;656851;-67
2021/05/25 11:59:41;;;;;;;2.43;1.50;;;11.10;99.90;;;;;;4452301;28;657995;-66
2021/05/25 12:02:29;;;;;;;1.27;1.13;;;11.20;99.90;;;;;;4430440;28;656656;-66
2021/05/25 12:05:18;;;;;;;1.87;1.20;;;11.20;99.90;;;;;;4455455;28;656399;-66
2021/05/25 12:08:06;;;;;;;2.00;1.40;;;11.20;99.90;;;;;;4428903;28;657456;-66
2021/05/25 12:10:53;;;;;;;1.70;1.13;;;11.30;99.90;;;;;;4432960;28;656754;-67
2021/05/25 12:13:42;;;;;;;2.40;1.20;;;11.30;99.90;;;;;;4455415;28;657908;-66
2021/05/25 12:16:30;;;;;;;2.93;1.63;;;11.50;99.90;;;;;;4419611;28;657989;-66
2021/05/25 12:19:21;;;;;;;3.90;1.67;;;11.40;99.90;;;;;;4425549;28;657106;-67
2021/05/25 12:22:08;;;;;;;2.90;1.70;;;11.60;99.90;;;;;;4426590;28;656513;-66
2021/05/25 12:24:55;;;;;;;5.00;1.50;;;11.70;99.90;;;;;;4445672;28;657757;-66
2021/05/25 12:27:42;;;;;;;2.13;1.70;;;11.90;99.90;;;;;;4425855;28;656966;-67
2021/05/25 12:30:30;;;;;;;9.73;1.63;;;12.00;99.90;;;;;;4451703;28;657859;-66
2021/05/25 12:33:18;;;;;;;5.70;1.70;;;12.10;99.90;;;;;;4443451;28;656885;-66
2021/05/25 12:36:12;;;;;;;6.87;1.83;;;12.00;99.90;;;;;;4422365;28;657329;-66
2021/05/25 12:39:02;;;;;;;3.50;1.77;;;12.00;99.90;;;;;;4396131;28;656910;-66
2021/05/25 12:41:49;;;;;;;4.13;1.77;;;12.20;99.90;;;;;;4421186;28;657998;-67
2021/05/25 12:44:36;;;;;;;5.50;2.20;;;12.40;99.90;;;;;;4448796;28;656330;-66
2021/05/25 12:47:24;;;;;;;3.30;1.70;;;12.60;99.90;;;;;;4432869;28;656170;-66
2021/05/25 12:50:12;;;;;;;4.37;1.57;;;12.80;99.90;;;;;;4451225;28;656537;-66
2021/05/25 12:53:04;;;;;;;4.93;1.83;;;12.90;99.90;;;;;;4413725;28;657415;-66
2021/05/25 12:56:03;;;;;;;5.77;1.70;;;13.10;99.90;;;;;;4427372;28;657038;-66
2021/05/25 12:58:50;;;;;;;4.30;1.60;;;13.30;99.90;;;;;;4413802;28;657386;-66
2021/05/25 13:01:43;;;;;;;1.57;1.10;;;13.10;99.90;;;;;;4415618;28;656759;-67
2021/05/25 13:04:30;;;;;;;6.07;1.53;;;13.00;99.90;;;;;;4426772;28;657305;-66
2021/05/25 13:07:21;;;;;;;5.83;1.90;;;12.90;99.90;;;;;;4432652;28;656177;-68
2021/05/25 13:10:23;;;;;;;6.20;1.60;;;12.90;99.90;;;;;;4417685;28;656577;-66
2021/05/25 13:13:15;;;;;;;3.73;1.53;;;12.60;99.90;;;;;;4408714;28;658075;-66
2021/05/25 13:16:02;;;;;;;5.00;1.67;;;12.60;99.90;;;;;;4422232;28;656117;-65
2021/05/25 13:18:50;;;;;;;3.00;1.87;;;12.40;99.90;;;;;;4427883;28;657431;-66
2021/05/25 13:21:42;;;;;;;3.87;1.80;;;12.30;99.90;;;;;;4435634;28;656736;-68
2021/05/25 13:24:30;;;;;;;4.53;2.30;;;12.30;99.90;;;;;;4430733;28;657025;-67
2021/05/25 13:27:20;;;;;;;5.57;2.60;;;12.20;99.90;;;;;;4455117;28;656356;-67
2021/05/25 13:30:09;;;;;;;5.63;3.10;;;12.20;99.90;;;;;;4406912;28;656517;-67
2021/05/25 13:32:56;;;;;;;9.20;2.90;;;11.90;99.90;;;;;;4437634;28;657031;-66
2021/05/25 13:35:43;;;;;;;4.63;2.65;;;11.90;99.90;;;;;;4431911;28;657202;-67
2021/05/25 13:38:30;;;;;;;8.40;2.67;;;12.10;99.90;;;;;;4446783;28;657760;-69
2021/05/25 13:41:18;;;;;;;5.70;2.77;;;12.20;99.90;;;;;;4431125;28;656713;-68
2021/05/25 13:44:06;;;;;;;9.13;2.47;;;12.20;99.90;;;;;;4451352;28;657155;-67
2021/05/25 13:46:53;;;;;;;4.40;2.27;;;12.10;99.90;;;;;;4425319;28;657167;-66
2021/05/25 13:49:40;;;;;;;7.73;3.47;;;11.90;99.90;;;;;;4433947;28;657536;-67
2021/05/25 13:52:27;;;;;;;7.63;4.87;;;11.80;99.90;;;;;;4426468;28;656798;-68
2021/05/25 13:55:14;;;;;;;11.13;5.17;;;11.90;99.90;;;;;;4455849;28;656567;-67
2021/05/25 13:58:04;;;;;;;8.00;4.57;;;11.80;99.90;;;;;;4449721;28;658028;-66
2021/05/25 14:01:03;;;;;;;7.93;4.57;;;11.70;99.90;;;;;;4426326;28;657378;-67
2021/05/25 14:03:50;;;;;;;6.87;4.60;;;11.70;99.90;;;;;;4419118;28;656739;-67
2021/05/25 14:06:37;;;;;;;7.43;4.17;;;12.00;99.90;;;;;;4443803;28;656540;-68
2021/05/25 14:09:25;;;;;;;10.63;5.17;;;12.40;99.90;;;;;;4453621;28;656312;-67
2021/05/25 14:12:12;;;;;;;7.50;5.03;;;13.00;99.90;;;;;;4441305;28;657578;-68
2021/05/25 14:15:00;;;;;;;9.17;4.87;;;13.70;99.90;;;;;;4443072;28;656742;-67
2021/05/25 14:17:47;;;;;;;9.43;4.50;;;14.20;99.90;;;;;;4429292;28;656715;-68
2021/05/25 14:20:35;;;;;;;7.53;4.25;;;14.30;99.90;;;;;;4440563;28;659671;-67
2021/05/25 14:23:22;;;;;;;6.53;4.20;;;14.40;99.90;;;;;;4433505;28;656500;-69
2021/05/25 14:26:11;;;;;;;7.30;4.37;;;14.50;99.90;;;;;;4449474;28;656937;-67